createdAt,value
2017-10-04T00:00:48.426Z,20.40
2017-10-04T00:03:15.987Z,21.40
2017-10-04T00:05:43.532Z,21.40
2017-10-04T00:08:11.126Z,23.10
2017-10-04T00:10:38.650Z,23.10
2017-10-04T00:13:06.162Z,23.77
2017-10-04T00:15:33.731Z,24.67
2017-10-04T00:18:01.325Z,23.20
2017-10-04T00:20:29.129Z,24.37
2017-10-04T00:22:56.691Z,23.80
2017-10-04T00:25:24.217Z,23.70
2017-10-04T00:27:51.743Z,25.17
2017-10-04T00:30:19.373Z,23.50
2017-10-04T00:32:46.900Z,26.40
2017-10-04T00:35:14.430Z,23.97
2017-10-04T00:37:41.984Z,24.10
2017-10-04T00:40:09.512Z,24.70
2017-10-04T00:42:37.270Z,25.00
2017-10-04T00:45:04.826Z,25.73
2017-10-04T00:47:33.011Z,24.37
2017-10-04T00:50:00.546Z,23.67
2017-10-04T00:52:28.127Z,23.77
2017-10-04T00:54:55.695Z,24.80
2017-10-04T00:57:23.459Z,25.10
2017-10-04T00:59:51.021Z,24.03
2017-10-04T01:02:18.613Z,23.03
2017-10-04T01:04:46.153Z,25.23
2017-10-04T01:07:13.927Z,25.00
2017-10-04T01:09:41.481Z,24.80
2017-10-04T01:12:09.005Z,25.30
2017-10-04T01:14:36.553Z,24.87
2017-10-04T01:17:04.107Z,22.53
2017-10-04T01:19:31.655Z,23.90
2017-10-04T01:21:59.218Z,23.77
2017-10-04T01:24:26.801Z,24.07
2017-10-04T01:26:54.358Z,24.20
2017-10-04T01:29:21.889Z,24.03
2017-10-04T01:31:49.461Z,24.47
2017-10-04T01:34:17.241Z,25.57
2017-10-04T01:36:44.802Z,25.23
2017-10-04T01:39:12.397Z,24.87
2017-10-04T01:41:39.931Z,25.80
2017-10-04T01:44:07.724Z,26.00
2017-10-04T01:46:35.493Z,25.23
2017-10-04T01:49:03.016Z,24.50
2017-10-04T01:51:30.547Z,25.37
2017-10-04T01:53:58.119Z,23.10
2017-10-04T01:56:25.636Z,24.50
2017-10-04T01:58:53.462Z,24.97
2017-10-04T02:01:21.033Z,25.90
2017-10-04T02:03:48.774Z,25.00
2017-10-04T02:06:16.581Z,25.20
2017-10-04T02:08:44.166Z,26.53
2017-10-04T02:11:11.689Z,25.80
2017-10-04T02:13:39.297Z,27.10
2017-10-04T02:16:07.791Z,25.93
2017-10-04T02:18:35.351Z,24.60
2017-10-04T02:21:02.894Z,26.00
2017-10-04T02:23:30.483Z,25.47
2017-10-04T02:25:58.012Z,25.60
2017-10-04T02:28:25.558Z,26.53
2017-10-04T02:30:53.128Z,26.33
2017-10-04T02:33:20.682Z,27.00
2017-10-04T02:35:48.246Z,26.37
2017-10-04T02:38:15.833Z,29.00
2017-10-04T02:40:43.360Z,28.63
2017-10-04T02:43:10.895Z,30.00
2017-10-04T02:45:38.479Z,27.87
2017-10-04T02:48:06.030Z,26.90
2017-10-04T02:50:33.775Z,29.90
2017-10-04T02:53:01.334Z,28.87
2017-10-04T02:55:28.860Z,27.87
2017-10-04T02:57:56.376Z,28.20
2017-10-04T03:00:23.969Z,29.40
2017-10-04T03:02:51.486Z,27.70
2017-10-04T03:05:19.024Z,30.50
2017-10-04T03:07:46.608Z,27.60
2017-10-04T03:10:14.129Z,27.77
2017-10-04T03:12:41.687Z,29.37
2017-10-04T03:15:09.264Z,31.63
2017-10-04T03:17:36.794Z,28.17
2017-10-04T03:20:04.315Z,31.13
2017-10-04T03:22:31.909Z,29.37
2017-10-04T03:24:59.432Z,29.97
2017-10-04T03:27:27.174Z,26.30
2017-10-04T03:29:54.777Z,28.97
2017-10-04T03:32:22.566Z,28.57
2017-10-04T03:34:50.091Z,29.23
2017-10-04T03:37:17.619Z,29.27
2017-10-04T03:39:45.181Z,27.10
2017-10-04T03:42:12.755Z,29.07
2017-10-04T03:44:40.513Z,30.30
2017-10-04T03:47:08.732Z,29.97
2017-10-04T03:49:36.751Z,29.43
2017-10-04T03:52:04.271Z,28.63
2017-10-04T03:54:32.146Z,28.80
2017-10-04T03:56:59.663Z,29.27
2017-10-04T03:59:27.193Z,30.07
2017-10-04T04:01:55.034Z,29.27
2017-10-04T04:04:22.572Z,27.60
2017-10-04T04:06:50.117Z,30.60
2017-10-04T04:09:17.699Z,31.20
2017-10-04T04:11:45.543Z,28.53
2017-10-04T04:14:13.070Z,29.50
2017-10-04T04:16:40.658Z,28.07
2017-10-04T04:19:08.185Z,27.40
2017-10-04T04:21:35.701Z,27.33
2017-10-04T04:24:03.242Z,26.43
2017-10-04T04:26:30.766Z,26.83
2017-10-04T04:28:58.301Z,30.33
2017-10-04T04:31:25.855Z,29.00
2017-10-04T04:33:53.379Z,29.40
2017-10-04T04:36:20.898Z,31.70
2017-10-04T04:39:00.311Z,30.10
2017-10-04T04:41:27.847Z,35.77
2017-10-04T04:43:55.381Z,36.00
2017-10-04T04:46:22.945Z,33.87
2017-10-04T04:48:50.466Z,33.37
2017-10-04T04:51:17.988Z,33.03
2017-10-04T04:53:45.560Z,34.33
2017-10-04T04:56:13.085Z,35.40
2017-10-04T04:58:40.602Z,33.60
2017-10-04T05:01:08.386Z,30.83
2017-10-04T05:03:35.935Z,32.20
2017-10-04T05:06:03.693Z,32.93
2017-10-04T05:08:31.310Z,37.10
2017-10-04T05:10:58.834Z,37.17
2017-10-04T05:13:26.367Z,35.10
2017-10-04T05:15:54.004Z,33.73
2017-10-04T05:18:21.543Z,34.30
2017-10-04T05:20:49.053Z,31.40
2017-10-04T05:23:16.649Z,32.90
2017-10-04T05:25:44.186Z,31.07
2017-10-04T05:28:11.716Z,30.70
2017-10-04T05:30:39.635Z,28.13
2017-10-04T05:33:07.173Z,28.40
2017-10-04T05:35:34.725Z,26.73
2017-10-04T05:38:02.278Z,27.40
2017-10-04T05:40:29.802Z,25.57
2017-10-04T05:42:57.308Z,26.37
2017-10-04T05:45:24.902Z,25.50
2017-10-04T05:47:52.427Z,26.60
2017-10-04T05:50:19.965Z,25.73
2017-10-04T05:52:47.520Z,24.57
2017-10-04T05:55:15.038Z,27.13
2017-10-04T05:57:42.579Z,24.73
2017-10-04T06:00:10.260Z,23.87
2017-10-04T06:02:37.802Z,25.50
2017-10-04T06:05:05.340Z,24.60
2017-10-04T06:07:32.872Z,27.30
2017-10-04T06:10:00.404Z,27.70
2017-10-04T06:12:28.201Z,25.23
2017-10-04T06:14:56.037Z,26.83
2017-10-04T06:17:23.616Z,26.07
2017-10-04T06:19:51.139Z,26.23
2017-10-04T06:22:18.688Z,28.43
2017-10-04T06:24:46.227Z,28.47
2017-10-04T06:27:13.771Z,26.63
2017-10-04T06:29:41.325Z,27.50
2017-10-04T06:32:08.921Z,25.90
2017-10-04T06:34:36.448Z,26.23
2017-10-04T06:37:04.265Z,29.63
2017-10-04T06:39:31.826Z,30.77
2017-10-04T06:41:59.586Z,27.87
2017-10-04T06:44:27.119Z,31.77
2017-10-04T06:46:54.694Z,31.37
2017-10-04T06:49:22.203Z,31.30
2017-10-04T06:51:49.725Z,29.23
2017-10-04T06:54:17.287Z,28.87
2017-10-04T06:56:44.883Z,30.67
2017-10-04T06:59:12.426Z,26.37
2017-10-04T07:01:39.988Z,26.33
2017-10-04T07:04:07.866Z,27.40
2017-10-04T07:06:35.393Z,26.10
2017-10-04T07:09:02.945Z,25.27
2017-10-04T07:11:31.354Z,24.47
2017-10-04T07:13:58.866Z,23.97
2017-10-04T07:16:26.439Z,25.60
2017-10-04T07:18:54.311Z,24.73
2017-10-04T07:21:21.845Z,22.60
2017-10-04T07:23:49.425Z,24.20
2017-10-04T07:26:16.957Z,23.57
2017-10-04T07:28:44.474Z,25.30
2017-10-04T07:31:12.017Z,24.97
2017-10-04T07:33:39.566Z,24.60
2017-10-04T07:36:07.082Z,23.10
2017-10-04T07:38:34.626Z,23.93
2017-10-04T07:41:02.496Z,23.93
2017-10-04T07:43:30.071Z,25.57
2017-10-04T07:45:57.605Z,24.53
2017-10-04T07:48:25.169Z,23.20
2017-10-04T07:50:52.938Z,23.70
2017-10-04T07:53:21.091Z,25.07
2017-10-04T07:55:48.630Z,27.00
2017-10-04T07:58:16.173Z,24.07
2017-10-04T08:00:43.949Z,23.10
2017-10-04T08:03:11.495Z,24.30
2017-10-04T08:05:39.276Z,25.70
2017-10-04T08:08:06.825Z,24.10
2017-10-04T08:10:34.344Z,25.90
2017-10-04T08:13:02.116Z,25.13
2017-10-04T08:15:29.959Z,24.30
2017-10-04T08:17:57.589Z,24.77
2017-10-04T08:20:25.121Z,24.40
2017-10-04T08:22:52.681Z,23.40
2017-10-04T08:25:20.194Z,23.17
2017-10-04T08:27:47.726Z,24.60
2017-10-04T08:30:15.343Z,20.57
2017-10-04T08:32:42.914Z,23.60
2017-10-04T08:35:10.440Z,24.23
2017-10-04T08:37:38.029Z,22.73
2017-10-04T08:40:05.551Z,24.10
2017-10-04T08:42:33.071Z,24.00
2017-10-04T08:45:00.666Z,25.00
2017-10-04T08:47:40.118Z,22.20
2017-10-04T08:50:08.317Z,25.83
2017-10-04T08:52:35.845Z,25.20
2017-10-04T08:55:03.371Z,26.10
2017-10-04T08:57:30.943Z,23.17
2017-10-04T08:59:58.554Z,18.73
2017-10-04T09:02:26.129Z,18.70
2017-10-04T09:05:05.473Z,19.63
2017-10-04T09:07:33.050Z,19.90
2017-10-04T09:10:00.815Z,17.60
2017-10-04T09:12:28.336Z,18.93
2017-10-04T09:14:55.882Z,17.50
2017-10-04T09:17:23.421Z,14.07
2017-10-04T09:19:50.950Z,14.73
2017-10-04T09:22:18.514Z,16.30
2017-10-04T09:24:46.275Z,14.20
2017-10-04T09:27:13.799Z,14.50
2017-10-04T09:29:41.351Z,13.77
2017-10-04T09:32:08.957Z,14.37
2017-10-04T09:34:36.471Z,13.57
2017-10-04T09:37:04.009Z,14.80
2017-10-04T09:39:31.545Z,13.70
2017-10-04T09:41:59.130Z,15.27
2017-10-04T09:44:26.660Z,13.87
2017-10-04T09:46:54.214Z,14.20
2017-10-04T09:49:21.981Z,16.40
2017-10-04T09:51:49.526Z,16.30
2017-10-04T09:54:17.103Z,15.67
2017-10-04T09:56:44.625Z,14.80
2017-10-04T09:59:12.141Z,15.37
2017-10-04T10:01:39.693Z,14.93
2017-10-04T10:04:07.217Z,14.63
2017-10-04T10:06:34.746Z,15.13
2017-10-04T10:09:02.405Z,14.40
2017-10-04T10:11:29.920Z,14.87
2017-10-04T10:13:57.440Z,14.20
2017-10-04T10:16:25.006Z,11.73
2017-10-04T10:18:52.538Z,11.90
2017-10-04T10:21:20.063Z,11.03
2017-10-04T10:23:47.711Z,10.60
2017-10-04T10:26:17.110Z,10.33
2017-10-04T10:28:45.711Z,9.27
2017-10-04T10:31:13.386Z,10.10
2017-10-04T10:33:40.930Z,9.20
2017-10-04T10:36:08.637Z,10.13
2017-10-04T10:38:36.270Z,10.10
2017-10-04T10:41:04.028Z,11.37
2017-10-04T10:43:32.115Z,10.60
2017-10-04T10:46:00.800Z,11.30
2017-10-04T10:48:29.424Z,9.63
2017-10-04T10:50:57.054Z,8.63
2017-10-04T10:53:25.522Z,7.70
2017-10-04T10:55:53.155Z,7.30
2017-10-04T10:58:21.504Z,6.00
2017-10-04T11:00:49.093Z,6.60
2017-10-04T11:03:17.838Z,6.47
2017-10-04T11:05:45.441Z,7.20
2017-10-04T11:08:13.059Z,7.97
2017-10-04T11:10:40.644Z,8.63
2017-10-04T11:13:08.298Z,8.43
2017-10-04T11:15:35.885Z,9.43
2017-10-04T11:18:03.675Z,8.63
2017-10-04T11:20:31.443Z,7.80
2017-10-04T11:22:59.762Z,9.50
2017-10-04T11:25:27.587Z,10.80
2017-10-04T11:27:56.699Z,11.03
2017-10-04T11:30:24.902Z,8.93
2017-10-04T11:32:52.561Z,7.40
2017-10-04T11:35:20.402Z,7.70
2017-10-04T11:37:48.935Z,7.50
2017-10-04T11:40:17.318Z,8.10
2017-10-04T11:42:46.227Z,7.50
2017-10-04T11:45:13.825Z,9.10
2017-10-04T11:47:41.565Z,7.97
2017-10-04T11:50:09.084Z,6.90
2017-10-04T11:52:36.637Z,7.80
2017-10-04T11:55:04.162Z,6.50
2017-10-04T11:57:31.903Z,6.57
2017-10-04T11:59:59.474Z,7.13
2017-10-04T12:02:27.019Z,6.33
2017-10-04T12:04:54.522Z,6.13
2017-10-04T12:07:22.049Z,7.73
2017-10-04T12:09:49.627Z,6.00
2017-10-04T12:12:17.361Z,5.30
2017-10-04T12:14:44.869Z,6.20
2017-10-04T12:17:12.439Z,5.90
2017-10-04T12:19:40.960Z,5.60
2017-10-04T12:22:08.461Z,5.30
2017-10-04T12:24:36.006Z,4.97
2017-10-04T12:27:03.545Z,6.00
2017-10-04T12:29:31.278Z,5.53
2017-10-04T12:31:59.436Z,6.20
2017-10-04T12:34:27.182Z,6.30
2017-10-04T12:36:55.614Z,6.40
2017-10-04T12:39:36.197Z,5.17
2017-10-04T12:42:12.349Z,5.20
2017-10-04T12:44:40.358Z,5.90
2017-10-04T12:47:08.187Z,5.90
2017-10-04T12:49:35.699Z,5.50
2017-10-04T12:52:03.243Z,5.03
2017-10-04T12:54:30.759Z,5.33
2017-10-04T12:56:58.274Z,5.07
2017-10-04T12:59:25.871Z,4.73
2017-10-04T13:01:54.137Z,6.23
2017-10-04T13:04:21.655Z,4.83
2017-10-04T13:06:50.102Z,5.50
2017-10-04T13:09:17.647Z,5.40
2017-10-04T13:11:45.176Z,5.30
2017-10-04T13:14:12.682Z,5.63
2017-10-04T13:16:40.226Z,5.60
2017-10-04T13:19:07.747Z,5.10
2017-10-04T13:21:35.255Z,5.20
2017-10-04T13:24:03.039Z,5.40
2017-10-04T13:26:30.598Z,6.30
2017-10-04T13:28:58.125Z,5.63
2017-10-04T13:31:25.704Z,5.43
2017-10-04T13:33:53.276Z,5.60
2017-10-04T13:36:21.304Z,5.43
2017-10-04T13:38:48.864Z,6.40
2017-10-04T13:41:16.621Z,5.70
2017-10-04T13:43:44.152Z,5.77
2017-10-04T13:46:11.713Z,6.37
2017-10-04T13:48:39.243Z,6.20
2017-10-04T13:51:07.009Z,6.30
2017-10-04T13:53:34.588Z,5.27
2017-10-04T13:56:02.374Z,5.80
2017-10-04T13:58:29.900Z,5.80
2017-10-04T14:00:57.496Z,5.70
2017-10-04T14:03:25.022Z,7.33
2017-10-04T14:05:52.770Z,7.20
2017-10-04T14:08:20.332Z,6.47
2017-10-04T14:10:49.012Z,5.90
2017-10-04T14:13:16.781Z,5.70
2017-10-04T14:15:44.365Z,6.40
2017-10-04T14:18:11.881Z,6.10
2017-10-04T14:20:39.400Z,5.90
2017-10-04T14:23:07.190Z,7.07
2017-10-04T14:25:35.491Z,6.53
2017-10-04T14:28:03.026Z,6.20
2017-10-04T14:30:31.925Z,5.87
2017-10-04T14:32:59.672Z,5.90
2017-10-04T14:35:27.770Z,6.07
2017-10-04T14:37:55.491Z,5.67
2017-10-04T14:40:23.527Z,5.43
2017-10-04T14:42:51.123Z,5.77
2017-10-04T14:45:19.479Z,5.50
2017-10-04T14:47:47.910Z,6.13
2017-10-04T14:50:15.696Z,5.83
2017-10-04T14:52:43.315Z,6.47
2017-10-04T14:55:10.896Z,8.10
2017-10-04T14:57:38.521Z,6.80
2017-10-04T15:00:06.171Z,6.70
2017-10-04T15:02:33.739Z,5.60
2017-10-04T15:05:01.374Z,5.60
2017-10-04T15:07:29.150Z,5.20
2017-10-04T15:09:56.979Z,4.77
2017-10-04T15:12:25.140Z,5.03
2017-10-04T15:14:53.653Z,5.23
2017-10-04T15:17:21.741Z,5.03
2017-10-04T15:19:50.347Z,4.70
2017-10-04T15:22:17.953Z,4.43
2017-10-04T15:24:45.832Z,4.83
2017-10-04T15:27:13.649Z,5.40
2017-10-04T15:29:41.462Z,5.50
2017-10-04T15:32:09.304Z,5.23
2017-10-04T15:34:36.810Z,5.77
2017-10-04T15:37:04.312Z,5.10
2017-10-04T15:39:31.931Z,4.80
2017-10-04T15:41:59.434Z,5.57
2017-10-04T15:44:28.459Z,4.80
2017-10-04T15:46:56.095Z,4.63
2017-10-04T15:49:23.906Z,5.50
2017-10-04T15:51:51.755Z,4.30
2017-10-04T15:54:19.321Z,6.13
2017-10-04T15:56:46.861Z,6.93
2017-10-04T15:59:14.406Z,5.20
2017-10-04T16:01:41.996Z,6.00
2017-10-04T16:04:09.529Z,6.37
2017-10-04T16:06:37.370Z,6.93
2017-10-04T16:09:04.966Z,7.80
2017-10-04T16:11:32.657Z,8.87
2017-10-04T16:14:00.175Z,8.53
2017-10-04T16:16:27.734Z,8.20
2017-10-04T16:18:56.341Z,7.00
2017-10-04T16:21:23.866Z,7.50
2017-10-04T16:23:51.678Z,7.47
2017-10-04T16:26:19.548Z,7.83
2017-10-04T16:28:47.067Z,8.10
2017-10-04T16:31:15.315Z,7.10
2017-10-04T16:33:43.063Z,7.47
2017-10-04T16:36:10.827Z,7.20
2017-10-04T16:38:38.493Z,7.83
2017-10-04T16:41:06.300Z,7.63
2017-10-04T16:43:33.847Z,8.60
2017-10-04T16:46:01.490Z,8.83
2017-10-04T16:48:29.605Z,8.60
2017-10-04T16:50:57.954Z,9.37
2017-10-04T16:53:25.542Z,11.60
2017-10-04T16:55:53.547Z,8.57
2017-10-04T16:58:21.641Z,8.43
2017-10-04T17:00:50.195Z,8.40
2017-10-04T17:03:18.431Z,7.67
2017-10-04T17:05:45.988Z,7.47
2017-10-04T17:08:14.269Z,7.30
2017-10-04T17:10:42.041Z,8.07
2017-10-04T17:13:09.570Z,8.73
2017-10-04T17:15:37.172Z,8.93
2017-10-04T17:18:04.897Z,9.67
2017-10-04T17:20:32.477Z,10.13
2017-10-04T17:23:00.054Z,10.43
2017-10-04T17:25:28.490Z,11.57
2017-10-04T17:27:56.034Z,9.40
2017-10-04T17:30:23.699Z,10.60
2017-10-04T17:32:51.278Z,10.87
2017-10-04T17:35:18.911Z,10.20
2017-10-04T17:37:46.724Z,10.33
2017-10-04T17:40:15.245Z,9.83
2017-10-04T17:42:43.040Z,10.97
2017-10-04T17:45:10.666Z,12.40
2017-10-04T17:47:38.300Z,11.40
2017-10-04T17:50:06.191Z,9.50
2017-10-04T17:52:33.968Z,10.23
2017-10-04T17:55:01.736Z,9.17
2017-10-04T17:57:30.171Z,9.60
2017-10-04T17:59:58.080Z,9.27
2017-10-04T18:02:25.668Z,9.47
2017-10-04T18:04:53.201Z,10.20
2017-10-04T18:07:20.988Z,8.90
2017-10-04T18:09:49.358Z,9.80
2017-10-04T18:12:17.781Z,9.80
2017-10-04T18:14:45.627Z,9.80
2017-10-04T18:17:14.057Z,9.93
2017-10-04T18:19:41.895Z,10.70
2017-10-04T18:22:09.428Z,10.00
2017-10-04T18:24:36.994Z,10.63
2017-10-04T18:27:04.527Z,10.73
2017-10-04T18:29:32.069Z,11.33
2017-10-04T18:31:59.637Z,10.83
2017-10-04T18:34:27.459Z,11.47
2017-10-04T18:36:55.456Z,11.40
2017-10-04T18:39:23.062Z,12.53
2017-10-04T18:41:50.587Z,14.07
2017-10-04T18:44:18.103Z,17.57
2017-10-04T18:46:45.642Z,17.17
2017-10-04T18:49:18.050Z,17.90
2017-10-04T18:51:45.702Z,17.97
2017-10-04T18:54:13.227Z,22.40
2017-10-04T18:56:43.125Z,24.77
2017-10-04T18:59:10.746Z,27.80
2017-10-04T19:01:38.335Z,28.47
2017-10-04T19:04:05.875Z,21.07
2017-10-04T19:06:33.939Z,16.57
2017-10-04T19:09:01.535Z,16.20
2017-10-04T19:11:29.046Z,17.40
2017-10-04T19:13:56.584Z,19.00
2017-10-04T19:16:24.134Z,19.23
2017-10-04T19:18:53.453Z,18.40
2017-10-04T19:21:20.984Z,16.47
2017-10-04T19:23:48.557Z,16.77
2017-10-04T19:26:16.078Z,17.70
2017-10-04T19:28:43.613Z,18.70
2017-10-04T19:31:11.198Z,18.27
2017-10-04T19:33:38.723Z,18.03
2017-10-04T19:36:06.251Z,17.67
2017-10-04T19:38:33.814Z,18.83
2017-10-04T19:41:01.333Z,19.53
2017-10-04T19:43:28.965Z,19.23
2017-10-04T19:45:57.335Z,18.57
2017-10-04T19:48:25.936Z,20.57
2017-10-04T19:50:53.683Z,17.73
2017-10-04T19:53:21.667Z,16.20
2017-10-04T19:55:49.542Z,18.60
2017-10-04T19:58:17.070Z,19.07
2017-10-04T20:00:44.634Z,18.43
2017-10-04T20:03:13.146Z,18.10
2017-10-04T20:05:40.732Z,17.00
2017-10-04T20:08:08.303Z,19.47
2017-10-04T20:10:35.831Z,26.10
2017-10-04T20:13:03.362Z,23.47
2017-10-04T20:15:31.163Z,25.00
2017-10-04T20:17:58.690Z,25.03
2017-10-04T20:20:26.204Z,16.57
2017-10-04T20:22:53.775Z,12.63
2017-10-04T20:25:21.354Z,13.13
2017-10-04T20:27:49.116Z,12.90
2017-10-04T20:30:16.693Z,13.13
2017-10-04T20:32:44.559Z,17.30
2017-10-04T20:35:12.096Z,22.80
2017-10-04T20:37:39.637Z,22.77
2017-10-04T20:40:07.150Z,23.63
2017-10-04T20:42:34.666Z,18.87
2017-10-04T20:45:02.235Z,18.37
2017-10-04T20:47:29.800Z,17.20
2017-10-04T20:49:57.320Z,20.37
2017-10-04T20:52:24.888Z,23.40
2017-10-04T20:54:52.658Z,17.67
2017-10-04T20:57:20.182Z,23.60
2017-10-04T20:59:47.781Z,22.50
2017-10-04T21:02:15.356Z,17.00
2017-10-04T21:04:42.899Z,18.53
2017-10-04T21:07:10.470Z,21.00
2017-10-04T21:09:38.052Z,19.90
2017-10-04T21:12:05.590Z,16.53
2017-10-04T21:14:33.122Z,15.30
2017-10-04T21:17:00.693Z,15.97
2017-10-04T21:19:28.441Z,21.87
2017-10-04T21:21:55.955Z,18.67
2017-10-04T21:24:23.778Z,21.60
2017-10-04T21:26:51.567Z,21.70
2017-10-04T21:29:19.213Z,28.57
2017-10-04T21:31:46.759Z,26.30
2017-10-04T21:34:15.274Z,22.00
2017-10-04T21:36:43.021Z,21.17
2017-10-04T21:39:10.597Z,20.70
2017-10-04T21:41:38.123Z,21.50
2017-10-04T21:44:05.910Z,23.27
2017-10-04T21:46:33.485Z,24.30
2017-10-04T21:49:01.009Z,26.17
2017-10-04T21:51:28.526Z,22.30
2017-10-04T21:53:56.071Z,22.50
2017-10-04T21:56:23.944Z,23.70
2017-10-04T21:58:51.472Z,27.37
2017-10-04T22:01:19.036Z,27.80
2017-10-04T22:03:46.576Z,25.40
2017-10-04T22:06:14.109Z,29.17
2017-10-04T22:08:41.930Z,27.80
2017-10-04T22:11:09.469Z,23.33
2017-10-04T22:13:37.730Z,25.00
2017-10-04T22:16:05.319Z,25.33
2017-10-04T22:18:32.853Z,24.60
2017-10-04T22:21:00.613Z,26.43
2017-10-04T22:23:28.216Z,25.97
2017-10-04T22:25:55.776Z,25.57
2017-10-04T22:28:23.334Z,24.83
2017-10-04T22:30:50.887Z,28.03
2017-10-04T22:33:18.408Z,29.30
2017-10-04T22:35:46.261Z,32.27
2017-10-04T22:38:13.797Z,22.57
2017-10-04T22:40:41.532Z,19.30
2017-10-04T22:43:09.055Z,22.57
2017-10-04T22:45:36.602Z,22.53
2017-10-04T22:48:04.137Z,27.90
2017-10-04T22:50:31.655Z,31.77
2017-10-04T22:52:59.220Z,29.57
2017-10-04T22:55:26.750Z,25.30
2017-10-04T22:57:54.328Z,26.37
2017-10-04T23:00:21.902Z,26.53
2017-10-04T23:02:50.311Z,27.90
2017-10-04T23:05:18.086Z,29.10
2017-10-04T23:07:45.685Z,27.37
2017-10-04T23:10:13.477Z,30.03
2017-10-04T23:12:41.001Z,28.67
2017-10-04T23:15:08.614Z,27.50
2017-10-04T23:17:36.156Z,28.13
2017-10-04T23:20:04.475Z,29.10
2017-10-04T23:22:32.323Z,29.20
2017-10-04T23:24:59.840Z,28.13
2017-10-04T23:27:27.584Z,28.63
2017-10-04T23:29:55.134Z,28.13
2017-10-04T23:32:22.681Z,29.03
2017-10-04T23:34:50.433Z,28.47
2017-10-04T23:37:17.946Z,28.60
2017-10-04T23:39:45.495Z,26.77
2017-10-04T23:42:13.027Z,29.40
2017-10-04T23:44:40.550Z,27.77
2017-10-04T23:47:08.089Z,28.23
2017-10-04T23:49:35.633Z,29.33
2017-10-04T23:52:03.157Z,27.27
2017-10-04T23:54:30.735Z,27.47
2017-10-04T23:56:58.607Z,27.80
2017-10-04T23:59:26.171Z,28.80
